Time;durP1;ratioP1;P1;durP2;ratioP2;P2;SDS_P1;SDS_P2;PMS_P1;PMS_P2;Temp;Humidity;BMP_temperature;BMP_pressure;BME280_temperature;BME280_humidity;BME280_pressure;Samples;Min_cycle;Max_cycle;Signal;HPM_P1;HPM_P2
2022/03/13 00:01:22;;;;;;;3.03;1.60;;;17.30;53.60;;;;;;5213204;28;20231;-71
2022/03/13 00:04:16;;;;;;;2.00;1.50;;;17.20;53.50;;;;;;5219874;28;20211;-71
2022/03/13 00:07:09;;;;;;;2.63;1.60;;;17.20;53.40;;;;;;5218774;28;20585;-71
2022/03/13 00:10:01;;;;;;;1.83;1.53;;;17.30;53.60;;;;;;5224665;28;20204;-71
2022/03/13 00:12:55;;;;;;;2.87;1.80;;;17.20;53.50;;;;;;5217731;28;20223;-71
2022/03/13 00:15:50;;;;;;;1.97;1.60;;;17.30;53.50;;;;;;5228181;28;20249;-71
2022/03/13 00:18:46;;;;;;;2.93;1.80;;;17.30;53.50;;;;;;5208889;28;20217;-71
2022/03/13 00:21:42;;;;;;;1.73;1.63;;;17.20;53.40;;;;;;5209248;28;20194;-71
2022/03/13 00:24:35;;;;;;;1.77;1.60;;;17.30;53.50;;;;;;5208298;28;20225;-71
2022/03/13 00:27:31;;;;;;;2.20;1.70;;;17.20;53.50;;;;;;5225188;28;20193;-68
2022/03/13 00:30:23;;;;;;;2.17;1.67;;;17.30;53.50;;;;;;5207797;28;20264;-70
2022/03/13 00:33:15;;;;;;;2.10;1.90;;;17.30;53.50;;;;;;5207368;28;20661;-71
2022/03/13 00:36:08;;;;;;;2.57;1.70;;;17.20;53.40;;;;;;5207594;28;20305;-71
2022/03/13 00:39:01;;;;;;;2.03;1.70;;;17.20;53.40;;;;;;5209291;28;20647;-71
2022/03/13 00:41:53;;;;;;;1.93;1.60;;;17.20;53.50;;;;;;5208593;28;20276;-71
2022/03/13 00:44:45;;;;;;;2.37;1.63;;;17.20;53.50;;;;;;5227577;28;20217;-71
2022/03/13 00:47:38;;;;;;;2.13;1.80;;;17.20;53.40;;;;;;5212776;28;20259;-71
2022/03/13 00:50:30;;;;;;;2.13;1.63;;;17.20;53.40;;;;;;5217705;28;20257;-69
2022/03/13 00:53:22;;;;;;;2.10;1.53;;;17.30;53.50;;;;;;5207465;28;20324;-71
2022/03/13 00:56:16;;;;;;;1.93;1.53;;;17.20;53.40;;;;;;5208280;28;20214;-71
2022/03/13 00:59:08;;;;;;;1.90;1.50;;;17.20;53.40;;;;;;5207211;28;20217;-71
2022/03/13 01:02:00;;;;;;;1.80;1.60;;;17.20;53.40;;;;;;5213676;28;20235;-71
2022/03/13 01:04:52;;;;;;;2.17;1.63;;;17.20;53.40;;;;;;5208260;28;20301;-71
2022/03/13 01:07:44;;;;;;;2.10;1.80;;;17.30;53.40;;;;;;5221031;28;20807;-71
2022/03/13 01:10:37;;;;;;;1.70;1.60;;;17.30;53.50;;;;;;5227125;28;20327;-71
2022/03/13 01:13:31;;;;;;;2.23;1.60;;;17.20;53.40;;;;;;5208184;28;20283;-69
2022/03/13 01:16:25;;;;;;;2.03;1.83;;;17.30;53.40;;;;;;5206389;28;20300;-71
2022/03/13 01:19:17;;;;;;;1.70;1.60;;;17.20;53.40;;;;;;5212336;28;20735;-71
2022/03/13 01:22:12;;;;;;;1.87;1.60;;;17.30;53.50;;;;;;5227257;28;20272;-71
2022/03/13 01:25:04;;;;;;;1.60;1.50;;;17.20;53.30;;;;;;5224906;28;20274;-71
2022/03/13 01:27:56;;;;;;;2.00;1.70;;;17.20;53.40;;;;;;5206665;28;20233;-71
2022/03/13 01:30:50;;;;;;;2.30;1.77;;;17.20;53.30;;;;;;5212949;28;20224;-71
2022/03/13 01:33:43;;;;;;;2.40;1.77;;;17.30;53.40;;;;;;5228148;28;20194;-71
2022/03/13 01:36:36;;;;;;;2.33;1.73;;;17.20;53.40;;;;;;5226529;28;20247;-71
2022/03/13 01:39:29;;;;;;;1.83;1.60;;;17.20;53.30;;;;;;5206481;28;20351;-68
2022/03/13 01:42:21;;;;;;;3.17;1.93;;;17.20;53.40;;;;;;5211406;28;20807;-71
2022/03/13 01:45:16;;;;;;;2.17;1.70;;;17.30;53.40;;;;;;5218753;28;20264;-71
2022/03/13 01:48:10;;;;;;;2.50;1.77;;;17.20;53.40;;;;;;5220659;28;20200;-71
2022/03/13 01:51:03;;;;;;;2.27;1.90;;;17.20;53.30;;;;;;5222580;28;20679;-71
2022/03/13 01:53:57;;;;;;;2.23;1.73;;;17.20;53.30;;;;;;5223082;28;20276;-71
2022/03/13 01:56:49;;;;;;;1.63;1.40;;;17.20;53.30;;;;;;5219071;28;20231;-71
2022/03/13 01:59:41;;;;;;;3.53;1.70;;;17.20;53.30;;;;;;5217184;28;20232;-71
2022/03/13 02:02:35;;;;;;;2.20;1.70;;;17.20;53.40;;;;;;5219571;28;20268;-70
2022/03/13 02:05:31;;;;;;;2.53;1.63;;;17.20;53.40;;;;;;5213747;28;20642;-71
2022/03/13 02:08:24;;;;;;;1.67;1.57;;;17.20;53.30;;;;;;5226498;28;20264;-71
2022/03/13 02:11:18;;;;;;;3.20;1.73;;;17.20;53.30;;;;;;5221289;28;20236;-71
2022/03/13 02:14:13;;;;;;;2.33;1.70;;;17.20;53.30;;;;;;5205310;28;20228;-71
2022/03/13 02:17:05;;;;;;;1.63;1.43;;;17.20;53.30;;;;;;5212279;28;20676;-71
2022/03/13 02:19:57;;;;;;;2.10;1.73;;;17.20;53.30;;;;;;5206440;28;20193;-69
2022/03/13 02:22:52;;;;;;;2.87;1.67;;;17.20;53.30;;;;;;5203813;28;20250;-71
2022/03/13 02:25:45;;;;;;;2.93;1.70;;;17.20;53.20;;;;;;5205852;28;20305;-71
2022/03/13 02:28:42;;;;;;;2.83;1.60;;;17.20;53.30;;;;;;5205471;28;20273;-71
2022/03/13 02:31:35;;;;;;;2.17;1.73;;;17.20;53.30;;;;;;5211905;28;20288;-70
2022/03/13 02:34:28;;;;;;;2.43;1.50;;;17.20;53.20;;;;;;5214646;28;20218;-71
2022/03/13 02:37:38;;;;;;;2.30;1.70;;;17.20;53.30;;;;;;5206034;28;20601;-71
2022/03/13 02:40:32;;;;;;;3.23;1.60;;;17.20;53.30;;;;;;5224101;28;20275;-69
2022/03/13 02:43:25;;;;;;;1.93;1.70;;;17.20;53.30;;;;;;5224766;28;20236;-71
2022/03/13 02:46:20;;;;;;;3.87;2.00;;;17.20;53.30;;;;;;5222247;28;20227;-71
2022/03/13 02:49:12;;;;;;;2.37;1.63;;;17.20;53.20;;;;;;5208911;28;20202;-70
2022/03/13 02:52:07;;;;;;;1.70;1.60;;;17.20;53.20;;;;;;5224543;28;20193;-71
2022/03/13 02:54:59;;;;;;;2.03;1.83;;;17.20;53.20;;;;;;5225562;28;20250;-71
2022/03/13 02:57:53;;;;;;;1.93;1.60;;;17.20;53.30;;;;;;5217565;28;20271;-71
2022/03/13 03:00:48;;;;;;;2.20;1.90;;;17.20;53.30;;;;;;5204415;28;20577;-71
2022/03/13 03:03:40;;;;;;;2.57;1.90;;;17.20;53.30;;;;;;5213949;28;20687;-71
2022/03/13 03:06:34;;;;;;;2.30;1.90;;;17.20;53.20;;;;;;5211203;28;20699;-69
2022/03/13 03:09:28;;;;;;;2.70;1.90;;;17.30;53.30;;;;;;5226246;28;20227;-71
2022/03/13 03:12:21;;;;;;;2.50;1.87;;;17.20;53.20;;;;;;5224359;28;20209;-71
2022/03/13 03:15:14;;;;;;;1.90;1.70;;;17.20;53.20;;;;;;5226578;28;20221;-71
2022/03/13 03:18:09;;;;;;;4.40;1.80;;;17.20;53.20;;;;;;5223750;28;20235;-71
2022/03/13 03:21:01;;;;;;;2.13;1.90;;;17.20;53.20;;;;;;5205721;28;20891;-69
2022/03/13 03:23:54;;;;;;;2.30;1.90;;;17.20;53.20;;;;;;5219420;28;20272;-71
2022/03/13 03:26:46;;;;;;;2.37;1.80;;;17.20;53.20;;;;;;5226443;28;20769;-71
2022/03/13 03:29:38;;;;;;;2.33;1.90;;;17.20;53.20;;;;;;5212270;28;20213;-70
2022/03/13 03:32:32;;;;;;;3.83;2.07;;;17.20;53.10;;;;;;5204543;28;20698;-69
2022/03/13 03:35:26;;;;;;;1.97;1.70;;;17.20;53.20;;;;;;5223260;28;20256;-71
2022/03/13 03:38:18;;;;;;;1.83;1.50;;;17.20;53.20;;;;;;5223203;28;20300;-70
2022/03/13 03:41:10;;;;;;;1.80;1.67;;;17.20;53.10;;;;;;5216261;28;20272;-70
2022/03/13 03:44:03;;;;;;;2.27;1.80;;;17.20;53.20;;;;;;5204943;28;20190;-71
2022/03/13 03:46:55;;;;;;;2.43;1.80;;;17.20;53.20;;;;;;5223771;28;20291;-71
2022/03/13 03:49:49;;;;;;;2.27;2.03;;;17.20;53.20;;;;;;5209397;28;20193;-71
2022/03/13 03:52:41;;;;;;;2.70;2.03;;;17.20;53.20;;;;;;5217422;28;20221;-71
2022/03/13 03:55:34;;;;;;;2.73;2.10;;;17.20;53.20;;;;;;5210788;28;20224;-70
2022/03/13 03:58:26;;;;;;;2.03;1.53;;;17.20;53.20;;;;;;5205507;28;20768;-71
2022/03/13 04:01:18;;;;;;;2.70;2.10;;;17.20;53.20;;;;;;5220800;28;20224;-71
2022/03/13 04:04:10;;;;;;;2.43;1.83;;;17.20;53.20;;;;;;5227907;28;20274;-71
2022/03/13 04:07:04;;;;;;;2.00;1.80;;;17.20;53.10;;;;;;5224427;28;20343;-71
2022/03/13 04:09:56;;;;;;;2.27;1.80;;;17.20;53.20;;;;;;5216393;28;20194;-71
2022/03/13 04:12:49;;;;;;;2.23;1.90;;;17.20;53.10;;;;;;5209643;28;20225;-70
2022/03/13 04:15:41;;;;;;;2.30;2.00;;;17.20;53.20;;;;;;5208144;28;20214;-71
2022/03/13 04:18:33;;;;;;;2.13;1.63;;;17.20;53.20;;;;;;5209123;28;20267;-71
2022/03/13 04:21:25;;;;;;;2.10;1.80;;;17.20;53.20;;;;;;5208395;28;20332;-71
2022/03/13 04:24:19;;;;;;;1.83;1.53;;;17.20;53.10;;;;;;5223612;28;20339;-71
2022/03/13 04:27:11;;;;;;;2.53;1.60;;;17.20;53.10;;;;;;5215154;28;20198;-71
2022/03/13 04:30:04;;;;;;;2.80;1.97;;;17.20;53.00;;;;;;5208250;28;20197;-71
2022/03/13 04:32:57;;;;;;;2.23;1.77;;;17.20;52.90;;;;;;5219726;28;20197;-71
2022/03/13 04:35:50;;;;;;;2.30;1.73;;;17.20;53.00;;;;;;5229378;28;20221;-70
2022/03/13 04:38:42;;;;;;;2.40;1.87;;;17.20;53.10;;;;;;5220246;28;20711;-71
2022/03/13 04:41:37;;;;;;;2.27;1.70;;;17.20;53.10;;;;;;5218856;28;20730;-69
2022/03/13 04:44:29;;;;;;;2.73;1.90;;;17.20;53.00;;;;;;5208199;28;20217;-71
2022/03/13 04:47:21;;;;;;;2.17;1.60;;;17.20;53.00;;;;;;5228045;28;20686;-71
2022/03/13 04:50:14;;;;;;;2.10;1.77;;;17.20;53.10;;;;;;5220868;28;20677;-71
2022/03/13 04:53:06;;;;;;;2.97;2.03;;;17.20;53.00;;;;;;5215856;28;20781;-71
2022/03/13 04:55:59;;;;;;;1.93;1.60;;;17.20;53.00;;;;;;5226989;28;20217;-71
2022/03/13 04:58:52;;;;;;;2.23;1.87;;;17.20;53.00;;;;;;5227181;28;20295;-71
2022/03/13 05:01:45;;;;;;;1.57;1.47;;;17.20;53.00;;;;;;5219447;28;20193;-71
2022/03/13 05:04:38;;;;;;;2.20;1.87;;;17.20;53.00;;;;;;5208035;28;20697;-71
2022/03/13 05:07:30;;;;;;;2.00;1.60;;;17.20;53.10;;;;;;5208869;28;20677;-71
2022/03/13 05:10:24;;;;;;;2.20;1.77;;;17.20;53.00;;;;;;5206616;28;20284;-71
2022/03/13 05:13:17;;;;;;;2.07;1.70;;;17.20;53.00;;;;;;5214322;28;20209;-71
2022/03/13 05:16:11;;;;;;;2.00;1.80;;;17.20;53.60;;;;;;5208219;28;20696;-71
2022/03/13 05:19:05;;;;;;;2.20;2.00;;;17.20;52.90;;;;;;5211098;28;20246;-70
2022/03/13 05:21:57;;;;;;;2.17;1.90;;;17.20;52.90;;;;;;5226731;28;20208;-71
2022/03/13 05:24:49;;;;;;;2.10;1.90;;;17.20;53.00;;;;;;5228241;28;20253;-70
2022/03/13 05:27:41;;;;;;;2.97;2.13;;;17.20;53.00;;;;;;5228301;28;20550;-71
2022/03/13 05:30:34;;;;;;;2.37;1.90;;;17.20;53.00;;;;;;5212270;28;20205;-71
2022/03/13 05:33:27;;;;;;;2.57;1.87;;;17.20;53.00;;;;;;5206395;28;20247;-71
2022/03/13 05:36:19;;;;;;;2.50;1.90;;;17.20;53.00;;;;;;5207166;28;20217;-71
2022/03/13 05:39:12;;;;;;;2.40;1.80;;;17.20;53.00;;;;;;5227161;28;20596;-71
2022/03/13 05:42:05;;;;;;;2.00;1.70;;;17.20;53.00;;;;;;5213283;28;20672;-71
2022/03/13 05:44:57;;;;;;;2.67;2.23;;;17.20;53.10;;;;;;5217017;28;20347;-70
2022/03/13 05:47:51;;;;;;;2.70;2.03;;;17.20;53.00;;;;;;5224463;28;20197;-71
2022/03/13 05:50:46;;;;;;;2.00;1.80;;;17.20;52.90;;;;;;5219025;28;20263;-71
2022/03/13 05:53:38;;;;;;;2.20;2.00;;;17.20;53.00;;;;;;5215096;28;20223;-71
2022/03/13 05:56:30;;;;;;;2.10;1.90;;;17.20;52.90;;;;;;5208259;28;20291;-71
2022/03/13 05:59:25;;;;;;;2.13;1.87;;;17.20;53.00;;;;;;5209027;28;20304;-71
2022/03/13 06:02:22;;;;;;;2.47;1.90;;;17.20;53.00;;;;;;5206212;28;20194;-71
2022/03/13 06:05:15;;;;;;;2.60;1.97;;;17.20;53.00;;;;;;5206375;28;20810;-71
2022/03/13 06:08:09;;;;;;;3.13;2.10;;;17.20;52.90;;;;;;5218476;28;20272;-71
2022/03/13 06:11:01;;;;;;;3.07;1.73;;;17.20;52.90;;;;;;5225826;28;20197;-70
2022/03/13 06:13:53;;;;;;;2.47;1.97;;;17.20;53.00;;;;;;5225448;28;20664;-71
2022/03/13 06:16:45;;;;;;;3.07;2.00;;;17.20;52.80;;;;;;5226459;28;20267;-71
2022/03/13 06:19:42;;;;;;;2.43;2.20;;;17.30;53.00;;;;;;5215096;28;20217;-71
2022/03/13 06:22:35;;;;;;;2.63;1.73;;;17.20;53.00;;;;;;5207000;28;20668;-71
2022/03/13 06:28:00;;;;;;;2.83;2.17;;;17.30;53.00;;;;;;5281885;22;20935;-67
2022/03/13 06:30:54;;;;;;;1.80;1.50;;;17.20;52.90;;;;;;5245922;28;20238;-67
2022/03/13 06:33:46;;;;;;;3.23;2.33;;;17.20;53.00;;;;;;5240909;28;20196;-67
2022/03/13 06:36:39;;;;;;;2.83;2.30;;;17.30;53.00;;;;;;5245433;28;20220;-66
2022/03/13 06:39:32;;;;;;;2.43;2.03;;;17.30;53.00;;;;;;5241492;28;20216;-67
2022/03/13 06:42:24;;;;;;;2.30;1.97;;;17.30;53.00;;;;;;5245348;28;20663;-67
2022/03/13 06:45:18;;;;;;;2.47;1.97;;;17.30;52.90;;;;;;5245289;28;20667;-67
2022/03/13 06:48:11;;;;;;;2.70;2.20;;;17.20;53.00;;;;;;5245657;28;20224;-67
2022/03/13 06:51:04;;;;;;;2.70;2.07;;;17.30;53.00;;;;;;5246260;28;20195;-66
2022/03/13 06:53:56;;;;;;;2.77;2.07;;;17.30;53.10;;;;;;5245923;28;20246;-67
2022/03/13 06:56:50;;;;;;;3.07;2.10;;;17.30;53.00;;;;;;5245711;28;20349;-67
2022/03/13 06:59:42;;;;;;;2.63;2.23;;;17.30;53.00;;;;;;5238296;28;20219;-66
2022/03/13 07:02:36;;;;;;;3.00;2.23;;;17.30;53.00;;;;;;5245440;28;20196;-67
2022/03/13 07:05:30;;;;;;;2.50;2.00;;;17.30;53.00;;;;;;5245731;28;20600;-67
2022/03/13 07:08:22;;;;;;;2.40;1.90;;;17.30;53.00;;;;;;5246167;28;20197;-67
2022/03/13 07:11:15;;;;;;;2.13;1.80;;;17.20;52.90;;;;;;5245119;28;20267;-66
2022/03/13 07:14:07;;;;;;;2.17;1.97;;;17.30;53.00;;;;;;5242492;28;20205;-66
2022/03/13 07:17:00;;;;;;;2.70;2.20;;;17.20;53.00;;;;;;5245704;28;20257;-67
2022/03/13 07:19:53;;;;;;;2.73;2.17;;;17.30;53.00;;;;;;5238247;28;20253;-66
2022/03/13 07:22:46;;;;;;;2.30;2.10;;;17.30;53.00;;;;;;5245328;28;20193;-66
2022/03/13 07:25:38;;;;;;;2.37;2.17;;;17.30;53.00;;;;;;5245372;28;20196;-67
2022/03/13 07:28:30;;;;;;;2.40;1.90;;;17.20;52.90;;;;;;5244924;28;20273;-67
2022/03/13 07:31:22;;;;;;;3.40;2.40;;;17.20;53.00;;;;;;5244639;28;20204;-66
2022/03/13 07:34:14;;;;;;;2.40;1.80;;;17.20;52.90;;;;;;5241984;28;20266;-67
2022/03/13 07:37:10;;;;;;;2.67;2.17;;;17.30;53.00;;;;;;5244805;28;20365;-67
2022/03/13 07:40:02;;;;;;;3.00;2.07;;;17.30;52.90;;;;;;5241417;28;20292;-67
2022/03/13 07:42:54;;;;;;;2.07;1.77;;;17.20;52.90;;;;;;5249313;28;20319;-67
2022/03/13 07:45:46;;;;;;;1.63;1.53;;;17.30;53.10;;;;;;5250183;28;20299;-67
2022/03/13 07:48:38;;;;;;;2.77;2.00;;;17.20;53.10;;;;;;5250101;28;20710;-66
2022/03/13 07:51:33;;;;;;;2.83;1.90;;;17.20;53.20;;;;;;5248546;28;20184;-67
2022/03/13 07:54:27;;;;;;;2.63;2.10;;;17.30;53.20;;;;;;5248569;28;20245;-67
2022/03/13 07:57:19;;;;;;;2.60;2.10;;;17.20;53.20;;;;;;5243645;28;20765;-67
2022/03/13 08:00:12;;;;;;;2.93;2.20;;;17.30;53.20;;;;;;5243460;28;20227;-67
2022/03/13 08:03:04;;;;;;;2.47;1.80;;;17.30;53.10;;;;;;5226882;28;20280;-67
2022/03/13 08:05:56;;;;;;;2.47;2.00;;;17.20;53.00;;;;;;5227988;28;20219;-67
2022/03/13 08:08:49;;;;;;;2.23;2.03;;;17.30;53.20;;;;;;5243979;28;20789;-67
2022/03/13 08:11:42;;;;;;;2.47;2.00;;;17.30;53.10;;;;;;5248668;28;20720;-68
2022/03/13 08:14:34;;;;;;;2.70;2.10;;;17.30;53.20;;;;;;5249108;28;20189;-67
2022/03/13 08:17:27;;;;;;;3.10;2.47;;;17.30;53.00;;;;;;5249045;28;20244;-67
2022/03/13 08:20:19;;;;;;;2.40;2.10;;;17.30;52.90;;;;;;5248296;28;20273;-67
2022/03/13 08:23:11;;;;;;;2.37;1.93;;;17.30;53.00;;;;;;5247470;28;20224;-67
2022/03/13 08:26:03;;;;;;;3.13;2.00;;;17.30;53.70;;;;;;5248980;28;20220;-67
2022/03/13 08:28:57;;;;;;;2.50;2.13;;;17.30;53.00;;;;;;5228550;28;20732;-67
2022/03/13 08:31:49;;;;;;;2.90;2.20;;;17.30;53.00;;;;;;5242989;28;20277;-67
2022/03/13 08:34:42;;;;;;;2.73;2.23;;;17.30;53.00;;;;;;5248647;28;20637;-68
2022/03/13 08:37:35;;;;;;;2.60;2.20;;;17.30;53.00;;;;;;5249202;28;20304;-68
2022/03/13 08:40:29;;;;;;;3.10;2.13;;;17.30;53.00;;;;;;5248907;28;20293;-68
2022/03/13 08:43:21;;;;;;;2.70;2.37;;;17.30;52.90;;;;;;5247726;28;20201;-68
2022/03/13 08:46:14;;;;;;;2.87;2.33;;;17.30;52.90;;;;;;5249136;28;20269;-68
2022/03/13 08:49:07;;;;;;;3.03;2.20;;;17.30;53.00;;;;;;5248981;28;20226;-68
2022/03/13 08:51:59;;;;;;;3.17;2.47;;;17.30;53.00;;;;;;5245481;28;20197;-68
2022/03/13 08:54:51;;;;;;;3.03;2.13;;;17.30;52.90;;;;;;5248241;28;20228;-65
2022/03/13 08:57:45;;;;;;;3.33;2.30;;;17.30;52.80;;;;;;5247305;28;20261;-66
2022/03/13 09:00:37;;;;;;;2.47;2.00;;;17.30;52.70;;;;;;5249181;28;20263;-66
2022/03/13 09:03:34;;;;;;;2.93;2.10;;;17.30;52.70;;;;;;5241487;28;20204;-69
2022/03/13 09:06:26;;;;;;;3.43;2.50;;;17.30;52.80;;;;;;5227288;28;20225;-67
2022/03/13 09:09:19;;;;;;;3.57;2.10;;;17.30;52.80;;;;;;5238773;28;20205;-67
2022/03/13 09:12:12;;;;;;;3.30;2.43;;;17.30;53.30;;;;;;5242844;28;20208;-67
2022/03/13 09:15:05;;;;;;;3.27;2.70;;;17.30;52.80;;;;;;5238840;28;20590;-67
2022/03/13 09:18:02;;;;;;;2.90;2.60;;;17.30;52.80;;;;;;5236734;28;20312;-66
2022/03/13 09:20:55;;;;;;;2.80;2.10;;;17.30;52.70;;;;;;5238118;28;20227;-67
2022/03/13 09:23:47;;;;;;;2.83;2.50;;;17.30;52.70;;;;;;5246858;28;20197;-66
2022/03/13 09:26:40;;;;;;;2.90;2.20;;;17.30;52.70;;;;;;5243243;28;20258;-67
2022/03/13 09:29:32;;;;;;;2.20;1.93;;;17.30;52.70;;;;;;5247680;28;20275;-66
2022/03/13 09:32:25;;;;;;;2.57;2.20;;;17.30;52.70;;;;;;5248641;28;20241;-67
2022/03/13 09:35:17;;;;;;;4.33;2.47;;;17.30;52.70;;;;;;5247536;28;20228;-67
2022/03/13 09:38:11;;;;;;;2.43;2.17;;;17.30;52.80;;;;;;5246572;28;20220;-67
2022/03/13 09:41:03;;;;;;;3.67;2.30;;;17.30;53.00;;;;;;5246409;28;20758;-65
2022/03/13 09:43:55;;;;;;;4.33;2.37;;;17.30;53.00;;;;;;5247408;28;20678;-66
2022/03/13 09:46:47;;;;;;;3.10;2.60;;;17.30;52.70;;;;;;5247740;28;20626;-66
2022/03/13 09:49:41;;;;;;;3.17;2.50;;;17.30;52.40;;;;;;5247519;28;20263;-65
2022/03/13 09:52:36;;;;;;;3.30;2.40;;;17.20;52.20;;;;;;5247422;28;20563;-66
2022/03/13 09:55:29;;;;;;;2.93;2.33;;;17.30;52.50;;;;;;5247512;28;20196;-66
2022/03/13 09:58:21;;;;;;;4.00;2.40;;;17.20;52.40;;;;;;5245613;28;20189;-66
2022/03/13 10:01:14;;;;;;;5.00;3.07;;;17.20;51.60;;;;;;5238399;28;20224;-67
2022/03/13 10:04:06;;;;;;;3.77;2.57;;;17.20;51.50;;;;;;5246167;28;20199;-66
2022/03/13 10:07:07;;;;;;;3.10;2.37;;;17.20;51.30;;;;;;5245551;28;20749;-66
2022/03/13 10:10:12;;;;;;;3.23;2.70;;;17.20;50.90;;;;;;5244669;28;20180;-66
2022/03/13 10:13:06;;;;;;;5.37;2.40;;;17.20;50.70;;;;;;5245500;28;20342;-66
2022/03/13 10:15:58;;;;;;;3.57;2.73;;;17.20;50.30;;;;;;5245382;28;20255;-67
2022/03/13 10:18:50;;;;;;;3.23;2.70;;;17.20;49.90;;;;;;5245746;28;20192;-66
2022/03/13 10:22:03;;;;;;;4.10;2.87;;;17.20;49.70;;;;;;5246373;28;20701;-66
2022/03/13 10:24:56;;;;;;;3.57;2.70;;;17.20;49.50;;;;;;5244414;28;20217;-66
2022/03/13 10:27:48;;;;;;;4.43;2.93;;;17.20;49.50;;;;;;5241911;28;21005;-66
2022/03/13 10:30:41;;;;;;;5.53;2.73;;;17.20;49.00;;;;;;5244830;28;20564;-66
2022/03/13 10:33:52;;;;;;;3.70;2.50;;;17.20;49.20;;;;;;5244367;28;20214;-67
2022/03/13 10:36:46;;;;;;;4.00;2.60;;;17.20;48.90;;;;;;5242778;28;20683;-66
2022/03/13 10:39:39;;;;;;;2.93;2.50;;;17.20;48.50;;;;;;5245103;28;20197;-67
2022/03/13 10:42:31;;;;;;;3.30;2.67;;;17.20;48.40;;;;;;5243086;28;20757;-66
2022/03/13 10:45:37;;;;;;;3.97;2.47;;;17.20;48.50;;;;;;5243996;28;20197;-66
2022/03/13 10:48:36;;;;;;;3.90;2.70;;;17.20;48.60;;;;;;5243737;28;20207;-67
2022/03/13 10:51:35;;;;;;;3.50;2.57;;;17.20;48.70;;;;;;5243682;28;20192;-67
2022/03/13 10:54:29;;;;;;;4.07;2.97;;;17.20;49.00;;;;;;5243147;28;20287;-67
2022/03/13 10:57:22;;;;;;;3.30;2.40;;;17.20;49.10;;;;;;5245259;28;20220;-67
2022/03/13 11:00:16;;;;;;;3.83;2.90;;;17.20;49.40;;;;;;5244117;28;20301;-67
2022/03/13 11:03:12;;;;;;;3.40;2.70;;;17.20;49.20;;;;;;5244504;28;20200;-66
2022/03/13 11:06:06;;;;;;;3.17;2.50;;;17.30;49.30;;;;;;5245303;28;20299;-67
2022/03/13 11:08:58;;;;;;;3.23;2.37;;;17.20;49.30;;;;;;5245264;28;20204;-67
2022/03/13 11:11:50;;;;;;;3.20;2.40;;;17.20;49.50;;;;;;5245386;28;20192;-67
2022/03/13 11:14:44;;;;;;;3.70;2.53;;;17.20;49.60;;;;;;5243384;28;20677;-66
2022/03/13 11:17:37;;;;;;;3.57;2.37;;;17.20;49.60;;;;;;5244820;28;20694;-65
2022/03/13 11:20:31;;;;;;;3.30;2.40;;;17.20;49.70;;;;;;5244875;28;20265;-67
2022/03/13 11:23:25;;;;;;;2.70;2.20;;;17.20;49.80;;;;;;5243420;28;20272;-67
2022/03/13 11:26:19;;;;;;;3.50;2.30;;;17.20;49.90;;;;;;5243118;28;20228;-67
2022/03/13 11:29:11;;;;;;;4.37;2.37;;;17.20;49.80;;;;;;5244493;28;20322;-67
2022/03/13 11:32:45;;;;;;;3.03;2.57;;;17.20;49.60;;;;;;5243402;28;20226;-67
2022/03/13 11:35:37;;;;;;;2.80;2.20;;;17.20;49.70;;;;;;5242985;28;20267;-66
2022/03/13 11:38:31;;;;;;;3.20;2.40;;;17.20;49.60;;;;;;5248143;28;20196;-67
2022/03/13 11:41:34;;;;;;;3.03;2.20;;;17.20;49.60;;;;;;5248213;28;20295;-68
2022/03/13 11:44:41;;;;;;;2.90;2.20;;;17.20;49.70;;;;;;5245804;28;20192;-67
2022/03/13 11:47:34;;;;;;;3.03;2.20;;;17.20;49.80;;;;;;5244447;28;20208;-67
2022/03/13 11:50:47;;;;;;;2.63;2.00;;;17.20;49.80;;;;;;5245660;28;20244;-66
2022/03/13 11:53:46;;;;;;;2.53;1.93;;;17.20;49.80;;;;;;5245359;28;20203;-66
2022/03/13 11:56:47;;;;;;;3.97;1.97;;;17.20;49.70;;;;;;5245602;28;20221;-67
2022/03/13 11:59:39;;;;;;;2.73;1.93;;;17.20;49.80;;;;;;5242498;28;20696;-67
2022/03/13 12:02:46;;;;;;;3.40;2.10;;;17.20;49.90;;;;;;5243357;28;20209;-67
2022/03/13 12:05:51;;;;;;;3.10;2.00;;;17.20;50.00;;;;;;5240546;28;20236;-67
2022/03/13 12:09:12;;;;;;;3.60;2.47;;;17.20;50.00;;;;;;5238525;28;20196;-67
2022/03/13 12:12:06;;;;;;;2.53;2.10;;;17.20;50.00;;;;;;5244357;28;20223;-67
2022/03/13 12:15:02;;;;;;;2.93;2.00;;;17.20;49.90;;;;;;5244764;28;20188;-66
2022/03/13 12:17:56;;;;;;;2.60;2.00;;;17.20;50.20;;;;;;5243295;28;20220;-67
2022/03/13 12:20:49;;;;;;;2.87;2.10;;;17.20;50.20;;;;;;5244326;28;20278;-66
2022/03/13 12:23:43;;;;;;;2.73;2.10;;;17.20;50.30;;;;;;5241584;28;20321;-66
2022/03/13 12:26:39;;;;;;;3.07;2.20;;;17.20;50.30;;;;;;5245350;28;20227;-65
2022/03/13 12:29:32;;;;;;;3.27;2.13;;;17.20;50.30;;;;;;5247101;28;20191;-66
2022/03/13 12:32:29;;;;;;;2.50;2.00;;;17.20;50.80;;;;;;5271625;22;20188;-70
2022/03/13 12:35:21;;;;;;;3.00;2.00;;;17.20;50.40;;;;;;5234801;28;20201;-71
2022/03/13 12:38:17;;;;;;;2.07;1.87;;;17.20;50.50;;;;;;5239820;28;20279;-71
2022/03/13 12:41:10;;;;;;;2.63;1.87;;;17.20;50.70;;;;;;5235950;28;20547;-71
2022/03/13 12:44:05;;;;;;;2.33;1.80;;;17.20;50.70;;;;;;5239228;28;20220;-70
2022/03/13 12:46:58;;;;;;;2.43;1.97;;;17.20;50.70;;;;;;5245979;28;20291;-71
2022/03/13 12:49:58;;;;;;;2.63;1.80;;;17.20;50.80;;;;;;5246305;28;20685;-70
2022/03/13 12:52:59;;;;;;;3.17;1.70;;;17.20;50.80;;;;;;5232388;28;20288;-70
2022/03/13 12:55:52;;;;;;;1.90;1.70;;;17.20;50.90;;;;;;5242286;28;20255;-71
2022/03/13 12:58:45;;;;;;;2.50;1.80;;;17.20;51.60;;;;;;5230159;28;20201;-71
2022/03/13 13:01:38;;;;;;;3.27;2.10;;;17.20;51.00;;;;;;5239626;28;20217;-71
2022/03/13 13:04:31;;;;;;;2.33;2.00;;;17.20;51.10;;;;;;5239937;28;20213;-71
2022/03/13 13:07:25;;;;;;;3.90;2.00;;;17.20;51.00;;;;;;5238510;28;20226;-69
2022/03/13 13:10:17;;;;;;;2.83;2.00;;;17.20;51.00;;;;;;5226998;28;20190;-71
2022/03/13 13:13:09;;;;;;;2.67;1.80;;;17.20;51.00;;;;;;5237832;28;20251;-69
2022/03/13 13:16:01;;;;;;;2.30;1.80;;;17.20;51.00;;;;;;5247964;28;20204;-71
2022/03/13 13:18:55;;;;;;;1.83;1.63;;;17.20;51.10;;;;;;5237893;28;20612;-71
2022/03/13 13:21:56;;;;;;;2.17;1.70;;;17.20;51.20;;;;;;5226651;28;20344;-71
2022/03/13 13:24:50;;;;;;;2.30;1.70;;;17.20;51.30;;;;;;5227527;28;20196;-69
2022/03/13 13:27:45;;;;;;;2.10;1.77;;;17.20;51.20;;;;;;5228814;28;20197;-70
2022/03/13 13:30:38;;;;;;;2.40;1.93;;;17.20;51.20;;;;;;5233891;28;20273;-71
2022/03/13 13:33:32;;;;;;;2.03;1.50;;;17.20;51.20;;;;;;5244180;28;20231;-71
2022/03/13 13:36:26;;;;;;;2.27;1.80;;;17.20;51.30;;;;;;5226314;28;20197;-71
2022/03/13 13:39:23;;;;;;;2.53;1.90;;;17.20;51.30;;;;;;5241838;28;20279;-71
2022/03/13 13:42:23;;;;;;;2.60;1.90;;;17.20;51.30;;;;;;5226154;28;20213;-71
2022/03/13 13:45:36;;;;;;;2.40;1.67;;;17.20;51.30;;;;;;5226279;28;20272;-71
2022/03/13 13:48:30;;;;;;;3.40;1.73;;;17.20;51.40;;;;;;5227033;28;20201;-71
2022/03/13 13:51:32;;;;;;;2.00;1.80;;;17.20;51.40;;;;;;5244219;28;20222;-70
2022/03/13 13:54:26;;;;;;;2.63;1.70;;;17.20;51.50;;;;;;5246501;28;20244;-71
2022/03/13 13:57:21;;;;;;;2.30;1.67;;;17.20;51.60;;;;;;5244683;28;20195;-69
2022/03/13 14:00:28;;;;;;;2.77;1.87;;;17.20;51.70;;;;;;5247199;28;20203;-70
2022/03/13 14:03:20;;;;;;;2.33;1.90;;;17.20;51.70;;;;;;5246764;28;20729;-71
2022/03/13 14:06:13;;;;;;;2.33;1.70;;;17.20;51.50;;;;;;5242230;28;20695;-71
2022/03/13 14:09:07;;;;;;;3.20;1.80;;;17.20;51.60;;;;;;5240721;28;20258;-71
2022/03/13 14:12:00;;;;;;;1.70;1.60;;;17.20;51.60;;;;;;5241449;28;20197;-70
2022/03/13 14:14:52;;;;;;;2.10;1.70;;;17.20;51.70;;;;;;5225629;28;20193;-69
2022/03/13 14:17:45;;;;;;;1.70;1.60;;;17.20;51.70;;;;;;5226349;28;20284;-70
2022/03/13 14:20:37;;;;;;;2.10;1.43;;;17.20;51.80;;;;;;5225773;28;20189;-70
2022/03/13 14:23:30;;;;;;;2.17;1.60;;;17.20;51.90;;;;;;5225232;28;20259;-71
2022/03/13 14:26:23;;;;;;;2.50;1.77;;;17.20;52.00;;;;;;5225637;28;20197;-71
2022/03/13 14:29:15;;;;;;;2.57;1.70;;;17.20;52.00;;;;;;5226667;28;20193;-69
2022/03/13 14:32:08;;;;;;;2.57;1.70;;;17.20;52.00;;;;;;5225212;28;20219;-71
2022/03/13 14:35:01;;;;;;;2.03;1.70;;;17.20;52.10;;;;;;5225261;28;20323;-71
2022/03/13 14:37:53;;;;;;;1.80;1.40;;;17.20;52.10;;;;;;5225859;28;20687;-71
2022/03/13 14:40:46;;;;;;;2.20;1.57;;;17.20;52.10;;;;;;5231941;28;20277;-71
2022/03/13 14:43:40;;;;;;;1.80;1.50;;;17.20;52.10;;;;;;5238459;28;20216;-71
2022/03/13 14:46:32;;;;;;;1.57;1.40;;;17.20;52.10;;;;;;5243236;28;20556;-70
2022/03/13 14:49:24;;;;;;;1.90;1.40;;;17.20;52.20;;;;;;5239182;28;20989;-70
2022/03/13 14:52:16;;;;;;;1.70;1.50;;;17.20;52.20;;;;;;5240607;28;20224;-70
2022/03/13 14:55:14;;;;;;;1.80;1.40;;;17.20;52.30;;;;;;5238325;28;20618;-70
2022/03/13 14:58:06;;;;;;;2.47;1.83;;;17.20;52.30;;;;;;5242086;28;20196;-70
2022/03/13 15:01:00;;;;;;;3.70;1.53;;;17.20;52.30;;;;;;5246051;28;20201;-71
2022/03/13 15:03:52;;;;;;;1.57;1.40;;;17.20;52.30;;;;;;5243788;28;20289;-71
2022/03/13 15:06:45;;;;;;;2.27;1.70;;;17.20;52.40;;;;;;5241617;28;20275;-71
2022/03/13 15:09:38;;;;;;;1.93;1.60;;;17.30;52.40;;;;;;5237874;28;20717;-71